sensor_id;sensor_type;location;lat;lon;timestamp;P1;durP1;ratioP1;P2;durP2;ratioP2
27402;SDS011;14862;49.494;8.530;2023-06-10T00:01:17;7.73;;;5.37;;
27402;SDS011;14862;49.494;8.530;2023-06-10T00:03:43;9.07;;;4.80;;
27402;SDS011;14862;49.494;8.530;2023-06-10T00:06:08;5.43;;;4.68;;
27402;SDS011;14862;49.494;8.530;2023-06-10T00:08:33;8.23;;;5.38;;
27402;SDS011;14862;49.494;8.530;2023-06-10T00:10:59;5.05;;;4.45;;
27402;SDS011;14862;49.494;8.530;2023-06-10T00:13:24;5.65;;;4.80;;
27402;SDS011;14862;49.494;8.530;2023-06-10T00:15:50;5.70;;;4.38;;
27402;SDS011;14862;49.494;8.530;2023-06-10T00:18:15;5.20;;;4.75;;
27402;SDS011;14862;49.494;8.530;2023-06-10T00:20:41;8.88;;;5.25;;
27402;SDS011;14862;49.494;8.530;2023-06-10T00:23:07;6.15;;;4.65;;
27402;SDS011;14862;49.494;8.530;2023-06-10T00:25:33;6.15;;;5.03;;
27402;SDS011;14862;49.494;8.530;2023-06-10T00:27:58;5.78;;;4.72;;
27402;SDS011;14862;49.494;8.530;2023-06-10T00:30:24;7.50;;;4.73;;
27402;SDS011;14862;49.494;8.530;2023-06-10T00:32:49;6.10;;;4.47;;
27402;SDS011;14862;49.494;8.530;2023-06-10T00:35:14;7.65;;;5.28;;
27402;SDS011;14862;49.494;8.530;2023-06-10T00:37:39;5.65;;;5.05;;
27402;SDS011;14862;49.494;8.530;2023-06-10T00:40:05;5.70;;;5.10;;
27402;SDS011;14862;49.494;8.530;2023-06-10T00:42:30;6.40;;;5.05;;
27402;SDS011;14862;49.494;8.530;2023-06-10T00:44:56;6.95;;;5.30;;
27402;SDS011;14862;49.494;8.530;2023-06-10T00:47:21;5.82;;;5.00;;
27402;SDS011;14862;49.494;8.530;2023-06-10T00:49:47;5.75;;;4.97;;
27402;SDS011;14862;49.494;8.530;2023-06-10T00:52:12;8.98;;;5.57;;
27402;SDS011;14862;49.494;8.530;2023-06-10T00:54:38;7.15;;;5.70;;
27402;SDS011;14862;49.494;8.530;2023-06-10T00:57:04;7.32;;;5.95;;
27402;SDS011;14862;49.494;8.530;2023-06-10T00:59:30;6.50;;;5.75;;
27402;SDS011;14862;49.494;8.530;2023-06-10T01:01:59;7.43;;;6.40;;
27402;SDS011;14862;49.494;8.530;2023-06-10T01:04:24;6.47;;;5.82;;
27402;SDS011;14862;49.494;8.530;2023-06-10T01:09:42;5.45;;;4.78;;
27402;SDS011;14862;49.494;8.530;2023-06-10T01:14:35;6.07;;;5.47;;
27402;SDS011;14862;49.494;8.530;2023-06-10T01:17:01;8.35;;;5.47;;
27402;SDS011;14862;49.494;8.530;2023-06-10T01:19:26;7.78;;;5.82;;
27402;SDS011;14862;49.494;8.530;2023-06-10T01:21:53;6.28;;;5.68;;
27402;SDS011;14862;49.494;8.530;2023-06-10T01:24:20;6.85;;;5.40;;
27402;SDS011;14862;49.494;8.530;2023-06-10T01:26:45;7.35;;;5.68;;
27402;SDS011;14862;49.494;8.530;2023-06-10T01:29:19;5.15;;;4.72;;
27402;SDS011;14862;49.494;8.530;2023-06-10T01:31:49;6.38;;;5.38;;
27402;SDS011;14862;49.494;8.530;2023-06-10T01:34:17;7.80;;;5.85;;
27402;SDS011;14862;49.494;8.530;2023-06-10T01:36:44;6.72;;;5.88;;
27402;SDS011;14862;49.494;8.530;2023-06-10T01:39:10;6.82;;;5.32;;
27402;SDS011;14862;49.494;8.530;2023-06-10T01:41:36;6.43;;;4.78;;
27402;SDS011;14862;49.494;8.530;2023-06-10T01:44:02;9.30;;;4.95;;
27402;SDS011;14862;49.494;8.530;2023-06-10T01:46:27;7.07;;;5.65;;
27402;SDS011;14862;49.494;8.530;2023-06-10T01:48:53;5.95;;;5.40;;
27402;SDS011;14862;49.494;8.530;2023-06-10T01:51:18;7.25;;;5.80;;
27402;SDS011;14862;49.494;8.530;2023-06-10T01:53:43;7.30;;;5.70;;
27402;SDS011;14862;49.494;8.530;2023-06-10T01:56:09;5.22;;;4.72;;
27402;SDS011;14862;49.494;8.530;2023-06-10T01:58:34;9.60;;;5.35;;
27402;SDS011;14862;49.494;8.530;2023-06-10T02:01:00;6.30;;;5.70;;
27402;SDS011;14862;49.494;8.530;2023-06-10T02:03:25;6.80;;;5.55;;
27402;SDS011;14862;49.494;8.530;2023-06-10T02:05:50;8.90;;;5.40;;
27402;SDS011;14862;49.494;8.530;2023-06-10T02:08:15;6.88;;;5.93;;
27402;SDS011;14862;49.494;8.530;2023-06-10T02:10:40;7.23;;;5.80;;
27402;SDS011;14862;49.494;8.530;2023-06-10T02:13:06;9.47;;;6.30;;
27402;SDS011;14862;49.494;8.530;2023-06-10T02:15:31;6.65;;;5.38;;
27402;SDS011;14862;49.494;8.530;2023-06-10T02:17:56;7.57;;;5.63;;
27402;SDS011;14862;49.494;8.530;2023-06-10T02:20:22;5.35;;;4.85;;
27402;SDS011;14862;49.494;8.530;2023-06-10T02:22:48;7.22;;;5.57;;
27402;SDS011;14862;49.494;8.530;2023-06-10T02:25:13;7.55;;;6.15;;
27402;SDS011;14862;49.494;8.530;2023-06-10T02:27:38;6.70;;;5.53;;
27402;SDS011;14862;49.494;8.530;2023-06-10T02:30:04;7.45;;;5.88;;
27402;SDS011;14862;49.494;8.530;2023-06-10T02:32:29;7.55;;;5.43;;
27402;SDS011;14862;49.494;8.530;2023-06-10T02:34:54;9.65;;;5.53;;
27402;SDS011;14862;49.494;8.530;2023-06-10T02:37:19;6.50;;;5.87;;
27402;SDS011;14862;49.494;8.530;2023-06-10T02:39:45;7.75;;;5.38;;
27402;SDS011;14862;49.494;8.530;2023-06-10T02:42:10;8.13;;;5.72;;
27402;SDS011;14862;49.494;8.530;2023-06-10T02:44:36;6.28;;;5.68;;
27402;SDS011;14862;49.494;8.530;2023-06-10T02:47:01;6.90;;;5.70;;
27402;SDS011;14862;49.494;8.530;2023-06-10T02:49:26;6.47;;;5.77;;
27402;SDS011;14862;49.494;8.530;2023-06-10T02:51:54;7.00;;;5.82;;
27402;SDS011;14862;49.494;8.530;2023-06-10T02:54:20;8.02;;;6.05;;
27402;SDS011;14862;49.494;8.530;2023-06-10T02:56:45;7.32;;;5.97;;
27402;SDS011;14862;49.494;8.530;2023-06-10T02:59:12;7.78;;;5.75;;
27402;SDS011;14862;49.494;8.530;2023-06-10T03:01:38;6.83;;;6.10;;
27402;SDS011;14862;49.494;8.530;2023-06-10T03:04:06;8.63;;;6.37;;
27402;SDS011;14862;49.494;8.530;2023-06-10T03:06:32;5.88;;;5.30;;
27402;SDS011;14862;49.494;8.530;2023-06-10T03:08:59;7.20;;;5.90;;
27402;SDS011;14862;49.494;8.530;2023-06-10T03:11:24;6.32;;;5.72;;
27402;SDS011;14862;49.494;8.530;2023-06-10T03:13:50;6.47;;;5.88;;
27402;SDS011;14862;49.494;8.530;2023-06-10T03:16:16;6.15;;;5.55;;
27402;SDS011;14862;49.494;8.530;2023-06-10T03:18:41;8.43;;;6.57;;
27402;SDS011;14862;49.494;8.530;2023-06-10T03:21:06;7.40;;;5.97;;
27402;SDS011;14862;49.494;8.530;2023-06-10T03:23:31;8.02;;;6.50;;
27402;SDS011;14862;49.494;8.530;2023-06-10T03:25:57;7.35;;;6.65;;
27402;SDS011;14862;49.494;8.530;2023-06-10T03:28:23;9.37;;;7.20;;
27402;SDS011;14862;49.494;8.530;2023-06-10T03:30:48;11.23;;;7.33;;
27402;SDS011;14862;49.494;8.530;2023-06-10T03:33:13;7.70;;;6.80;;
27402;SDS011;14862;49.494;8.530;2023-06-10T03:35:39;9.93;;;7.65;;
27402;SDS011;14862;49.494;8.530;2023-06-10T03:38:04;9.13;;;7.28;;
27402;SDS011;14862;49.494;8.530;2023-06-10T03:40:30;7.80;;;7.10;;
27402;SDS011;14862;49.494;8.530;2023-06-10T03:42:56;9.32;;;7.68;;
27402;SDS011;14862;49.494;8.530;2023-06-10T03:45:22;8.80;;;7.90;;
27402;SDS011;14862;49.494;8.530;2023-06-10T03:47:47;8.95;;;7.80;;
27402;SDS011;14862;49.494;8.530;2023-06-10T03:50:13;8.73;;;7.38;;
27402;SDS011;14862;49.494;8.530;2023-06-10T03:52:38;9.23;;;6.97;;
27402;SDS011;14862;49.494;8.530;2023-06-10T03:55:03;10.05;;;8.32;;
27402;SDS011;14862;49.494;8.530;2023-06-10T03:57:28;9.80;;;8.00;;
27402;SDS011;14862;49.494;8.530;2023-06-10T03:59:54;11.10;;;7.43;;
27402;SDS011;14862;49.494;8.530;2023-06-10T04:02:20;8.43;;;7.47;;
27402;SDS011;14862;49.494;8.530;2023-06-10T04:04:45;8.43;;;7.53;;
27402;SDS011;14862;49.494;8.530;2023-06-10T04:07:10;8.27;;;7.47;;
27402;SDS011;14862;49.494;8.530;2023-06-10T04:09:36;8.25;;;7.47;;
27402;SDS011;14862;49.494;8.530;2023-06-10T04:12:01;13.57;;;7.40;;
27402;SDS011;14862;49.494;8.530;2023-06-10T04:14:27;10.32;;;7.93;;
27402;SDS011;14862;49.494;8.530;2023-06-10T04:16:52;7.90;;;7.13;;
27402;SDS011;14862;49.494;8.530;2023-06-10T04:19:18;9.63;;;7.37;;
27402;SDS011;14862;49.494;8.530;2023-06-10T04:21:43;12.75;;;7.50;;
27402;SDS011;14862;49.494;8.530;2023-06-10T04:24:08;8.40;;;7.60;;
27402;SDS011;14862;49.494;8.530;2023-06-10T04:26:35;8.73;;;7.67;;
27402;SDS011;14862;49.494;8.530;2023-06-10T04:29:00;8.35;;;7.55;;
27402;SDS011;14862;49.494;8.530;2023-06-10T04:31:25;9.17;;;7.57;;
27402;SDS011;14862;49.494;8.530;2023-06-10T04:33:51;9.27;;;7.50;;
27402;SDS011;14862;49.494;8.530;2023-06-10T04:36:16;8.18;;;7.35;;
27402;SDS011;14862;49.494;8.530;2023-06-10T04:38:41;8.90;;;7.97;;
27402;SDS011;14862;49.494;8.530;2023-06-10T04:41:06;10.40;;;6.90;;
27402;SDS011;14862;49.494;8.530;2023-06-10T04:43:32;9.27;;;7.43;;
27402;SDS011;14862;49.494;8.530;2023-06-10T04:45:57;7.60;;;6.87;;
27402;SDS011;14862;49.494;8.530;2023-06-10T04:48:22;9.18;;;7.32;;
27402;SDS011;14862;49.494;8.530;2023-06-10T04:50:49;8.25;;;7.35;;
27402;SDS011;14862;49.494;8.530;2023-06-10T04:53:15;7.97;;;6.85;;
27402;SDS011;14862;49.494;8.530;2023-06-10T04:55:40;9.60;;;7.30;;
27402;SDS011;14862;49.494;8.530;2023-06-10T04:58:05;8.10;;;7.33;;
27402;SDS011;14862;49.494;8.530;2023-06-10T05:00:30;12.97;;;7.07;;
27402;SDS011;14862;49.494;8.530;2023-06-10T05:02:56;8.90;;;7.30;;
27402;SDS011;14862;49.494;8.530;2023-06-10T05:05:21;8.10;;;7.22;;
27402;SDS011;14862;49.494;8.530;2023-06-10T05:07:46;9.20;;;7.05;;
27402;SDS011;14862;49.494;8.530;2023-06-10T05:10:11;8.23;;;7.43;;
27402;SDS011;14862;49.494;8.530;2023-06-10T05:12:37;8.98;;;7.15;;
27402;SDS011;14862;49.494;8.530;2023-06-10T05:15:03;10.32;;;7.18;;
27402;SDS011;14862;49.494;8.530;2023-06-10T05:17:29;12.27;;;6.90;;
27402;SDS011;14862;49.494;8.530;2023-06-10T05:19:54;11.73;;;6.50;;
27402;SDS011;14862;49.494;8.530;2023-06-10T05:22:19;8.23;;;6.23;;
27402;SDS011;14862;49.494;8.530;2023-06-10T05:24:44;9.15;;;6.38;;
27402;SDS011;14862;49.494;8.530;2023-06-10T05:27:10;9.25;;;6.50;;
27402;SDS011;14862;49.494;8.530;2023-06-10T05:29:35;7.70;;;6.70;;
27402;SDS011;14862;49.494;8.530;2023-06-10T05:32:00;9.00;;;6.93;;
27402;SDS011;14862;49.494;8.530;2023-06-10T05:34:28;11.68;;;7.53;;
27402;SDS011;14862;49.494;8.530;2023-06-10T05:36:53;7.80;;;6.68;;
27402;SDS011;14862;49.494;8.530;2023-06-10T05:39:18;7.93;;;7.13;;
27402;SDS011;14862;49.494;8.530;2023-06-10T05:41:44;8.27;;;6.73;;
27402;SDS011;14862;49.494;8.530;2023-06-10T05:44:09;9.83;;;6.97;;
27402;SDS011;14862;49.494;8.530;2023-06-10T05:46:34;8.77;;;6.23;;
27402;SDS011;14862;49.494;8.530;2023-06-10T05:48:59;10.30;;;6.93;;
27402;SDS011;14862;49.494;8.530;2023-06-10T05:51:25;7.82;;;6.40;;
27402;SDS011;14862;49.494;8.530;2023-06-10T05:53:50;9.30;;;6.00;;
27402;SDS011;14862;49.494;8.530;2023-06-10T05:56:15;13.18;;;6.75;;
27402;SDS011;14862;49.494;8.530;2023-06-10T05:58:41;8.30;;;6.10;;
27402;SDS011;14862;49.494;8.530;2023-06-10T06:01:06;11.10;;;6.57;;
27402;SDS011;14862;49.494;8.530;2023-06-10T06:03:31;8.23;;;6.30;;
27402;SDS011;14862;49.494;8.530;2023-06-10T06:05:56;7.07;;;5.95;;
27402;SDS011;14862;49.494;8.530;2023-06-10T06:08:21;8.03;;;6.60;;
27402;SDS011;14862;49.494;8.530;2023-06-10T06:10:47;8.52;;;5.78;;
27402;SDS011;14862;49.494;8.530;2023-06-10T06:13:15;6.93;;;6.03;;
27402;SDS011;14862;49.494;8.530;2023-06-10T06:15:40;7.65;;;5.63;;
27402;SDS011;14862;49.494;8.530;2023-06-10T06:18:05;7.37;;;6.43;;
27402;SDS011;14862;49.494;8.530;2023-06-10T06:20:30;8.33;;;5.97;;
27402;SDS011;14862;49.494;8.530;2023-06-10T06:22:56;7.20;;;5.40;;
27402;SDS011;14862;49.494;8.530;2023-06-10T06:25:21;7.53;;;5.50;;
27402;SDS011;14862;49.494;8.530;2023-06-10T06:27:46;7.53;;;5.13;;
27402;SDS011;14862;49.494;8.530;2023-06-10T06:30:11;6.25;;;5.00;;
27402;SDS011;14862;49.494;8.530;2023-06-10T06:32:37;4.90;;;4.50;;
27402;SDS011;14862;49.494;8.530;2023-06-10T06:35:02;4.83;;;4.33;;
27402;SDS011;14862;49.494;8.530;2023-06-10T06:37:27;6.70;;;4.70;;
27402;SDS011;14862;49.494;8.530;2023-06-10T06:39:53;6.80;;;4.73;;
27402;SDS011;14862;49.494;8.530;2023-06-10T06:42:18;4.40;;;3.83;;
27402;SDS011;14862;49.494;8.530;2023-06-10T06:44:44;4.93;;;4.30;;
27402;SDS011;14862;49.494;8.530;2023-06-10T06:47:09;4.68;;;4.28;;
27402;SDS011;14862;49.494;8.530;2023-06-10T06:49:34;4.78;;;4.38;;
27402;SDS011;14862;49.494;8.530;2023-06-10T06:51:59;6.67;;;4.03;;
27402;SDS011;14862;49.494;8.530;2023-06-10T06:54:25;4.60;;;3.87;;
27402;SDS011;14862;49.494;8.530;2023-06-10T06:56:50;5.07;;;3.47;;
27402;SDS011;14862;49.494;8.530;2023-06-10T06:59:15;3.65;;;3.35;;
27402;SDS011;14862;49.494;8.530;2023-06-10T07:01:42;3.80;;;3.47;;
27402;SDS011;14862;49.494;8.530;2023-06-10T07:04:07;4.20;;;3.75;;
27402;SDS011;14862;49.494;8.530;2023-06-10T07:06:32;11.07;;;3.80;;
27402;SDS011;14862;49.494;8.530;2023-06-10T07:08:57;5.77;;;3.50;;
27402;SDS011;14862;49.494;8.530;2023-06-10T07:11:23;4.33;;;3.50;;
27402;SDS011;14862;49.494;8.530;2023-06-10T07:13:48;6.60;;;3.93;;
27402;SDS011;14862;49.494;8.530;2023-06-10T07:16:13;4.90;;;3.97;;
27402;SDS011;14862;49.494;8.530;2023-06-10T07:18:39;3.38;;;3.08;;
27402;SDS011;14862;49.494;8.530;2023-06-10T07:21:04;6.90;;;3.60;;
27402;SDS011;14862;49.494;8.530;2023-06-10T07:23:29;4.87;;;3.67;;
27402;SDS011;14862;49.494;8.530;2023-06-10T07:25:55;4.80;;;3.60;;
27402;SDS011;14862;49.494;8.530;2023-06-10T07:28:20;5.50;;;3.17;;
27402;SDS011;14862;49.494;8.530;2023-06-10T07:30:45;3.80;;;3.50;;
27402;SDS011;14862;49.494;8.530;2023-06-10T07:33:10;18.57;;;3.83;;
27402;SDS011;14862;49.494;8.530;2023-06-10T07:35:36;3.70;;;3.20;;
27402;SDS011;14862;49.494;8.530;2023-06-10T07:38:01;4.70;;;3.47;;
27402;SDS011;14862;49.494;8.530;2023-06-10T07:40:26;4.00;;;3.70;;
27402;SDS011;14862;49.494;8.530;2023-06-10T07:42:51;3.67;;;3.37;;
27402;SDS011;14862;49.494;8.530;2023-06-10T07:45:17;3.90;;;3.53;;
27402;SDS011;14862;49.494;8.530;2023-06-10T07:47:43;4.27;;;3.80;;
27402;SDS011;14862;49.494;8.530;2023-06-10T07:50:08;5.67;;;4.17;;
27402;SDS011;14862;49.494;8.530;2023-06-10T07:52:33;4.43;;;3.00;;
27402;SDS011;14862;49.494;8.530;2023-06-10T07:54:59;3.92;;;3.45;;
27402;SDS011;14862;49.494;8.530;2023-06-10T07:57:24;3.33;;;3.03;;
27402;SDS011;14862;49.494;8.530;2023-06-10T07:59:49;4.03;;;3.63;;
27402;SDS011;14862;49.494;8.530;2023-06-10T08:02:15;3.30;;;3.00;;
27402;SDS011;14862;49.494;8.530;2023-06-10T08:04:40;3.63;;;3.37;;
27402;SDS011;14862;49.494;8.530;2023-06-10T08:07:05;3.67;;;3.30;;
27402;SDS011;14862;49.494;8.530;2023-06-10T08:09:30;4.40;;;3.77;;
27402;SDS011;14862;49.494;8.530;2023-06-10T08:11:55;3.60;;;3.30;;
27402;SDS011;14862;49.494;8.530;2023-06-10T08:14:21;3.40;;;3.10;;
27402;SDS011;14862;49.494;8.530;2023-06-10T08:16:46;3.38;;;3.08;;
27402;SDS011;14862;49.494;8.530;2023-06-10T08:19:11;4.60;;;3.73;;
27402;SDS011;14862;49.494;8.530;2023-06-10T08:21:37;3.33;;;3.00;;
27402;SDS011;14862;49.494;8.530;2023-06-10T08:24:04;3.63;;;3.33;;
27402;SDS011;14862;49.494;8.530;2023-06-10T08:26:29;3.30;;;3.00;;
27402;SDS011;14862;49.494;8.530;2023-06-10T08:28:55;4.80;;;3.78;;
27402;SDS011;14862;49.494;8.530;2023-06-10T08:31:20;3.58;;;3.28;;
27402;SDS011;14862;49.494;8.530;2023-06-10T08:33:45;4.03;;;3.67;;
27402;SDS011;14862;49.494;8.530;2023-06-10T08:36:11;3.80;;;3.50;;
27402;SDS011;14862;49.494;8.530;2023-06-10T08:38:36;3.73;;;3.30;;
27402;SDS011;14862;49.494;8.530;2023-06-10T08:41:01;5.25;;;3.45;;
27402;SDS011;14862;49.494;8.530;2023-06-10T08:43:39;4.55;;;3.10;;
27402;SDS011;14862;49.494;8.530;2023-06-10T08:46:08;4.35;;;3.58;;
27402;SDS011;14862;49.494;8.530;2023-06-10T08:48:34;7.43;;;3.60;;
27402;SDS011;14862;49.494;8.530;2023-06-10T08:51:00;4.40;;;4.00;;
27402;SDS011;14862;49.494;8.530;2023-06-10T08:53:25;5.13;;;3.45;;
27402;SDS011;14862;49.494;8.530;2023-06-10T08:55:51;4.15;;;3.85;;
27402;SDS011;14862;49.494;8.530;2023-06-10T08:58:17;4.20;;;3.80;;
27402;SDS011;14862;49.494;8.530;2023-06-10T09:00:42;4.10;;;3.72;;
27402;SDS011;14862;49.494;8.530;2023-06-10T09:03:07;3.65;;;3.30;;
27402;SDS011;14862;49.494;8.530;2023-06-10T09:05:33;4.10;;;3.80;;
27402;SDS011;14862;49.494;8.530;2023-06-10T09:07:59;3.53;;;3.28;;
27402;SDS011;14862;49.494;8.530;2023-06-10T09:10:25;3.92;;;3.55;;
27402;SDS011;14862;49.494;8.530;2023-06-10T09:12:51;5.07;;;4.30;;
27402;SDS011;14862;49.494;8.530;2023-06-10T09:15:16;6.33;;;4.33;;
27402;SDS011;14862;49.494;8.530;2023-06-10T09:17:42;4.93;;;4.00;;
27402;SDS011;14862;49.494;8.530;2023-06-10T09:20:08;6.07;;;4.10;;
27402;SDS011;14862;49.494;8.530;2023-06-10T09:22:33;4.82;;;3.63;;
27402;SDS011;14862;49.494;8.530;2023-06-10T09:25:05;4.82;;;4.15;;
27402;SDS011;14862;49.494;8.530;2023-06-10T09:27:32;6.80;;;4.10;;
27402;SDS011;14862;49.494;8.530;2023-06-10T09:29:57;4.63;;;4.22;;
27402;SDS011;14862;49.494;8.530;2023-06-10T09:32:23;6.10;;;3.92;;
27402;SDS011;14862;49.494;8.530;2023-06-10T09:34:49;4.40;;;4.00;;
27402;SDS011;14862;49.494;8.530;2023-06-10T09:37:22;5.00;;;4.30;;
27402;SDS011;14862;49.494;8.530;2023-06-10T09:40:03;4.77;;;4.37;;
27402;SDS011;14862;49.494;8.530;2023-06-10T09:42:32;5.93;;;3.72;;
27402;SDS011;14862;49.494;8.530;2023-06-10T09:44:57;6.22;;;4.60;;
27402;SDS011;14862;49.494;8.530;2023-06-10T09:47:22;6.27;;;4.30;;
27402;SDS011;14862;49.494;8.530;2023-06-10T09:49:48;5.37;;;4.87;;
27402;SDS011;14862;49.494;8.530;2023-06-10T09:52:14;5.72;;;5.13;;
27402;SDS011;14862;49.494;8.530;2023-06-10T09:54:45;6.30;;;4.47;;
27402;SDS011;14862;49.494;8.530;2023-06-10T09:57:11;5.68;;;4.32;;
27402;SDS011;14862;49.494;8.530;2023-06-10T09:59:37;4.72;;;3.85;;
27402;SDS011;14862;49.494;8.530;2023-06-10T10:02:02;4.88;;;3.80;;
27402;SDS011;14862;49.494;8.530;2023-06-10T10:04:29;4.47;;;4.03;;
27402;SDS011;14862;49.494;8.530;2023-06-10T10:06:54;6.07;;;4.50;;
27402;SDS011;14862;49.494;8.530;2023-06-10T10:09:19;4.70;;;4.30;;
27402;SDS011;14862;49.494;8.530;2023-06-10T10:11:45;5.30;;;4.22;;
27402;SDS011;14862;49.494;8.530;2023-06-10T10:14:11;4.20;;;3.75;;
27402;SDS011;14862;49.494;8.530;2023-06-10T10:16:39;4.97;;;3.72;;
27402;SDS011;14862;49.494;8.530;2023-06-10T10:19:12;7.05;;;3.90;;
27402;SDS011;14862;49.494;8.530;2023-06-10T10:21:46;5.15;;;4.10;;
27402;SDS011;14862;49.494;8.530;2023-06-10T10:24:19;5.15;;;3.22;;
27402;SDS011;14862;49.494;8.530;2023-06-10T10:26:46;5.75;;;4.18;;
27402;SDS011;14862;49.494;8.530;2023-06-10T10:31:42;5.63;;;3.92;;
27402;SDS011;14862;49.494;8.530;2023-06-10T10:34:15;5.68;;;3.90;;
27402;SDS011;14862;49.494;8.530;2023-06-10T10:36:41;4.32;;;3.92;;
27402;SDS011;14862;49.494;8.530;2023-06-10T10:39:07;6.63;;;4.05;;
27402;SDS011;14862;49.494;8.530;2023-06-10T10:41:32;5.32;;;3.90;;
27402;SDS011;14862;49.494;8.530;2023-06-10T10:43:58;3.80;;;3.40;;
27402;SDS011;14862;49.494;8.530;2023-06-10T10:46:23;4.15;;;3.75;;
27402;SDS011;14862;49.494;8.530;2023-06-10T10:48:51;5.57;;;4.10;;
27402;SDS011;14862;49.494;8.530;2023-06-10T10:51:17;6.38;;;4.10;;
27402;SDS011;14862;49.494;8.530;2023-06-10T10:53:42;5.68;;;4.00;;
27402;SDS011;14862;49.494;8.530;2023-06-10T10:56:13;5.57;;;3.65;;
27402;SDS011;14862;49.494;8.530;2023-06-10T10:58:38;4.22;;;3.53;;
27402;SDS011;14862;49.494;8.530;2023-06-10T11:01:10;4.32;;;3.30;;
27402;SDS011;14862;49.494;8.530;2023-06-10T11:03:35;9.20;;;3.60;;
27402;SDS011;14862;49.494;8.530;2023-06-10T11:06:06;4.38;;;3.42;;
27402;SDS011;14862;49.494;8.530;2023-06-10T11:11:24;8.18;;;3.45;;
27402;SDS011;14862;49.494;8.530;2023-06-10T11:16:29;4.57;;;3.30;;
27402;SDS011;14862;49.494;8.530;2023-06-10T11:18:55;5.18;;;3.50;;
27402;SDS011;14862;49.494;8.530;2023-06-10T11:21:20;7.63;;;3.78;;
27402;SDS011;14862;49.494;8.530;2023-06-10T11:23:45;5.95;;;3.80;;
27402;SDS011;14862;49.494;8.530;2023-06-10T11:31:24;5.00;;;3.60;;
27402;SDS011;14862;49.494;8.530;2023-06-10T11:33:52;6.70;;;3.63;;
27402;SDS011;14862;49.494;8.530;2023-06-10T11:36:17;5.38;;;2.75;;
27402;SDS011;14862;49.494;8.530;2023-06-10T11:38:43;3.97;;;3.10;;
27402;SDS011;14862;49.494;8.530;2023-06-10T11:41:08;12.32;;;3.90;;
27402;SDS011;14862;49.494;8.530;2023-06-10T11:43:33;4.15;;;3.67;;
27402;SDS011;14862;49.494;8.530;2023-06-10T11:45:59;4.43;;;3.42;;
27402;SDS011;14862;49.494;8.530;2023-06-10T11:48:25;4.20;;;3.45;;
27402;SDS011;14862;49.494;8.530;2023-06-10T11:50:53;3.58;;;3.20;;
27402;SDS011;14862;49.494;8.530;2023-06-10T11:53:18;4.30;;;3.35;;
27402;SDS011;14862;49.494;8.530;2023-06-10T11:55:44;3.70;;;3.40;;
27402;SDS011;14862;49.494;8.530;2023-06-10T11:58:16;4.65;;;3.42;;
27402;SDS011;14862;49.494;8.530;2023-06-10T12:00:51;3.97;;;3.67;;
27402;SDS011;14862;49.494;8.530;2023-06-10T12:03:18;5.40;;;3.80;;
27402;SDS011;14862;49.494;8.530;2023-06-10T12:08:21;4.00;;;3.70;;
27402;SDS011;14862;49.494;8.530;2023-06-10T12:10:46;3.92;;;3.63;;
27402;SDS011;14862;49.494;8.530;2023-06-10T12:13:11;4.43;;;3.53;;
27402;SDS011;14862;49.494;8.530;2023-06-10T12:15:37;3.75;;;3.40;;
27402;SDS011;14862;49.494;8.530;2023-06-10T12:18:02;4.75;;;3.45;;
27402;SDS011;14862;49.494;8.530;2023-06-10T12:20:28;6.57;;;3.60;;
27402;SDS011;14862;49.494;8.530;2023-06-10T12:22:54;5.13;;;3.58;;
27402;SDS011;14862;49.494;8.530;2023-06-10T12:25:24;4.45;;;3.30;;
27402;SDS011;14862;49.494;8.530;2023-06-10T12:27:50;6.60;;;3.75;;
27402;SDS011;14862;49.494;8.530;2023-06-10T12:30:18;3.90;;;3.60;;
27402;SDS011;14862;49.494;8.530;2023-06-10T12:32:44;6.70;;;3.75;;
27402;SDS011;14862;49.494;8.530;2023-06-10T12:35:13;4.20;;;3.80;;
27402;SDS011;14862;49.494;8.530;2023-06-10T12:37:39;5.10;;;3.67;;
27402;SDS011;14862;49.494;8.530;2023-06-10T12:40:05;4.90;;;3.70;;
27402;SDS011;14862;49.494;8.530;2023-06-10T12:42:35;4.13;;;3.78;;
27402;SDS011;14862;49.494;8.530;2023-06-10T12:45:01;7.20;;;3.50;;
27402;SDS011;14862;49.494;8.530;2023-06-10T12:47:33;4.00;;;3.58;;
27402;SDS011;14862;49.494;8.530;2023-06-10T12:50:00;3.70;;;3.35;;
27402;SDS011;14862;49.494;8.530;2023-06-10T12:52:25;4.13;;;3.42;;
27402;SDS011;14862;49.494;8.530;2023-06-10T12:54:50;9.15;;;3.75;;
27402;SDS011;14862;49.494;8.530;2023-06-10T12:57:17;4.47;;;3.50;;
27402;SDS011;14862;49.494;8.530;2023-06-10T12:59:42;5.28;;;3.90;;
27402;SDS011;14862;49.494;8.530;2023-06-10T13:02:14;4.88;;;3.58;;
27402;SDS011;14862;49.494;8.530;2023-06-10T13:04:40;4.18;;;3.35;;
27402;SDS011;14862;49.494;8.530;2023-06-10T13:07:05;6.73;;;3.57;;
27402;SDS011;14862;49.494;8.530;2023-06-10T13:09:31;4.07;;;3.42;;
27402;SDS011;14862;49.494;8.530;2023-06-10T13:11:56;4.10;;;3.73;;
27402;SDS011;14862;49.494;8.530;2023-06-10T13:14:22;3.97;;;3.67;;
27402;SDS011;14862;49.494;8.530;2023-06-10T13:16:47;6.78;;;3.65;;
27402;SDS011;14862;49.494;8.530;2023-06-10T13:19:12;5.63;;;3.50;;
27402;SDS011;14862;49.494;8.530;2023-06-10T13:21:37;3.90;;;3.17;;
27402;SDS011;14862;49.494;8.530;2023-06-10T13:24:03;4.15;;;3.60;;
27402;SDS011;14862;49.494;8.530;2023-06-10T13:26:28;4.13;;;3.67;;
27402;SDS011;14862;49.494;8.530;2023-06-10T13:28:54;6.85;;;4.18;;
27402;SDS011;14862;49.494;8.530;2023-06-10T13:31:19;4.93;;;3.63;;
27402;SDS011;14862;49.494;8.530;2023-06-10T13:33:45;22.88;;;4.25;;
27402;SDS011;14862;49.494;8.530;2023-06-10T13:36:11;3.95;;;3.55;;
27402;SDS011;14862;49.494;8.530;2023-06-10T13:38:37;8.00;;;4.00;;
27402;SDS011;14862;49.494;8.530;2023-06-10T13:41:02;4.07;;;3.78;;
27402;SDS011;14862;49.494;8.530;2023-06-10T13:43:27;6.03;;;4.32;;
27402;SDS011;14862;49.494;8.530;2023-06-10T13:45:54;3.70;;;3.35;;
27402;SDS011;14862;49.494;8.530;2023-06-10T13:48:19;5.03;;;3.85;;
27402;SDS011;14862;49.494;8.530;2023-06-10T13:50:45;6.53;;;4.10;;
27402;SDS011;14862;49.494;8.530;2023-06-10T13:53:11;4.20;;;3.80;;
27402;SDS011;14862;49.494;8.530;2023-06-10T13:55:36;3.90;;;3.60;;
27402;SDS011;14862;49.494;8.530;2023-06-10T13:58:01;4.68;;;3.80;;
27402;SDS011;14862;49.494;8.530;2023-06-10T14:00:27;3.92;;;3.30;;
27402;SDS011;14862;49.494;8.530;2023-06-10T14:02:53;11.48;;;3.30;;
27402;SDS011;14862;49.494;8.530;2023-06-10T14:05:18;3.70;;;3.25;;
27402;SDS011;14862;49.494;8.530;2023-06-10T14:07:43;6.25;;;3.17;;
27402;SDS011;14862;49.494;8.530;2023-06-10T14:10:09;3.15;;;2.80;;
27402;SDS011;14862;49.494;8.530;2023-06-10T14:12:34;3.30;;;3.00;;
27402;SDS011;14862;49.494;8.530;2023-06-10T14:15:00;4.40;;;3.40;;
27402;SDS011;14862;49.494;8.530;2023-06-10T14:17:25;4.13;;;3.35;;
27402;SDS011;14862;49.494;8.530;2023-06-10T14:19:50;3.53;;;3.22;;
27402;SDS011;14862;49.494;8.530;2023-06-10T14:22:15;4.65;;;3.45;;
27402;SDS011;14862;49.494;8.530;2023-06-10T14:24:41;3.80;;;3.47;;
27402;SDS011;14862;49.494;8.530;2023-06-10T14:27:06;5.10;;;3.20;;
27402;SDS011;14862;49.494;8.530;2023-06-10T14:29:31;4.28;;;3.88;;
27402;SDS011;14862;49.494;8.530;2023-06-10T14:31:58;6.28;;;4.95;;
27402;SDS011;14862;49.494;8.530;2023-06-10T14:34:23;4.30;;;3.50;;
27402;SDS011;14862;49.494;8.530;2023-06-10T14:36:53;7.22;;;3.40;;
27402;SDS011;14862;49.494;8.530;2023-06-10T14:39:18;4.00;;;3.60;;
27402;SDS011;14862;49.494;8.530;2023-06-10T14:41:43;3.20;;;3.00;;
27402;SDS011;14862;49.494;8.530;2023-06-10T14:44:09;3.78;;;3.45;;
27402;SDS011;14862;49.494;8.530;2023-06-10T14:46:34;5.72;;;3.40;;
27402;SDS011;14862;49.494;8.530;2023-06-10T14:49:00;4.57;;;3.40;;
27402;SDS011;14862;49.494;8.530;2023-06-10T14:51:27;5.72;;;3.10;;
27402;SDS011;14862;49.494;8.530;2023-06-10T14:53:52;11.65;;;3.70;;
27402;SDS011;14862;49.494;8.530;2023-06-10T14:56:17;3.80;;;3.50;;
27402;SDS011;14862;49.494;8.530;2023-06-10T14:58:42;4.13;;;3.70;;
27402;SDS011;14862;49.494;8.530;2023-06-10T15:01:08;3.80;;;3.33;;